createdAt,value
2022-09-14T00:01:27.544Z,19.63
2022-09-14T00:04:17.628Z,19.40
2022-09-14T00:06:45.541Z,19.27
2022-09-14T00:09:17.659Z,24.77
2022-09-14T00:11:48.645Z,19.42
2022-09-14T00:14:16.123Z,18.98
2022-09-14T00:16:43.512Z,18.77
2022-09-14T00:19:20.808Z,19.52
2022-09-14T00:21:51.432Z,18.83
2022-09-14T00:24:18.342Z,19.75
2022-09-14T00:26:45.206Z,18.80
2022-09-14T00:29:12.214Z,19.85
2022-09-14T00:31:39.575Z,19.55
2022-09-14T00:34:08.283Z,19.48
2022-09-14T00:36:40.267Z,19.02
2022-09-14T00:39:08.627Z,19.65
2022-09-14T00:41:37.748Z,18.17
2022-09-14T00:44:05.970Z,19.02
2022-09-14T00:46:38.478Z,18.75
2022-09-14T00:49:12.854Z,18.85
2022-09-14T00:51:45.825Z,21.27
2022-09-14T00:54:12.564Z,19.75
2022-09-14T00:56:39.266Z,18.52
2022-09-14T00:59:13.056Z,19.30
2022-09-14T01:01:39.789Z,17.63
2022-09-14T01:04:06.529Z,19.75
2022-09-14T01:06:37.299Z,18.55
2022-09-14T01:09:22.258Z,20.33
2022-09-14T01:12:11.070Z,19.35
2022-09-14T01:14:46.172Z,18.58
2022-09-14T01:20:07.615Z,19.58
2022-09-14T01:22:44.262Z,19.48
2022-09-14T01:25:51.690Z,19.75
2022-09-14T01:28:53.570Z,18.95
2022-09-14T01:31:38.377Z,19.67
2022-09-14T01:34:13.905Z,19.85
2022-09-14T01:36:44.367Z,20.15
2022-09-14T01:39:12.138Z,19.35
2022-09-14T01:41:42.039Z,19.52
2022-09-14T01:44:16.158Z,19.85
2022-09-14T01:46:51.495Z,18.37
2022-09-14T01:49:23.123Z,18.55
2022-09-14T01:51:58.958Z,18.63
2022-09-14T01:54:41.874Z,18.05
2022-09-14T01:57:35.462Z,18.75
2022-09-14T02:00:12.298Z,19.40
2022-09-14T02:02:44.621Z,19.23
2022-09-14T02:05:15.106Z,18.20
2022-09-14T02:07:41.993Z,19.17
2022-09-14T02:10:12.400Z,18.98
2022-09-14T02:12:40.126Z,19.63
2022-09-14T02:15:11.021Z,19.25
2022-09-14T02:17:37.913Z,19.50
2022-09-14T02:20:07.660Z,19.90
2022-09-14T02:22:34.862Z,18.85
2022-09-14T02:25:02.876Z,19.58
2022-09-14T02:27:29.498Z,18.02
2022-09-14T02:29:56.148Z,18.65
2022-09-14T02:32:51.032Z,17.48
2022-09-14T02:35:36.072Z,18.48
2022-09-14T02:38:05.725Z,19.67
2022-09-14T02:40:43.163Z,19.92
2022-09-14T02:43:21.450Z,19.25
2022-09-14T02:45:59.634Z,18.98
2022-09-14T02:48:51.021Z,19.67
2022-09-14T02:51:52.563Z,19.33
2022-09-14T02:54:32.712Z,19.17
2022-09-14T02:57:03.755Z,19.52
2022-09-14T02:59:30.699Z,20.25
2022-09-14T03:02:00.362Z,19.38
2022-09-14T03:04:27.542Z,18.50
2022-09-14T03:06:54.230Z,18.83
2022-09-14T03:09:20.881Z,19.42
2022-09-14T03:11:47.515Z,18.10
2022-09-14T03:14:14.182Z,19.42
2022-09-14T03:16:41.000Z,19.13
2022-09-14T03:19:07.692Z,19.13
2022-09-14T03:21:34.345Z,19.30
2022-09-14T03:24:00.983Z,19.20
2022-09-14T03:26:29.551Z,19.52
2022-09-14T03:28:58.521Z,20.15
2022-09-14T03:31:26.681Z,20.15
2022-09-14T03:33:57.777Z,19.65
2022-09-14T03:36:26.143Z,19.33
2022-09-14T03:38:55.984Z,19.08
2022-09-14T03:41:23.443Z,19.73
2022-09-14T03:43:50.783Z,19.75
2022-09-14T03:46:21.275Z,20.08
2022-09-14T03:48:48.502Z,20.92
2022-09-14T03:51:15.977Z,20.30
2022-09-14T03:53:44.709Z,18.70
2022-09-14T03:56:14.985Z,18.58
2022-09-14T03:58:42.053Z,19.10
2022-09-14T04:01:14.524Z,18.15
2022-09-14T04:03:42.114Z,19.75
2022-09-14T04:06:09.858Z,18.13
2022-09-14T04:08:38.982Z,18.25
2022-09-14T04:11:21.214Z,16.98
2022-09-14T04:13:48.310Z,19.50
2022-09-14T04:16:16.872Z,17.35
2022-09-14T04:18:44.161Z,18.65
2022-09-14T04:21:15.354Z,18.98
2022-09-14T04:24:03.446Z,18.15
2022-09-14T04:26:30.111Z,18.17
2022-09-14T04:28:57.678Z,18.67
2022-09-14T04:31:25.319Z,18.85
2022-09-14T04:33:56.058Z,18.73
2022-09-14T04:36:25.779Z,20.20
2022-09-14T04:38:54.156Z,19.17
2022-09-14T04:41:21.845Z,21.35
2022-09-14T04:43:50.440Z,19.30
2022-09-14T04:46:19.978Z,18.92
2022-09-14T04:48:47.129Z,19.35
2022-09-14T04:51:16.958Z,20.95
2022-09-14T04:53:45.452Z,20.25
2022-09-14T04:56:13.403Z,19.92
2022-09-14T04:58:43.315Z,18.17
2022-09-14T05:01:15.120Z,19.77
2022-09-14T05:03:42.646Z,18.95
2022-09-14T05:06:15.179Z,18.80
2022-09-14T05:08:42.657Z,25.58
2022-09-14T05:11:14.093Z,18.58
2022-09-14T05:13:40.739Z,20.08
2022-09-14T05:16:15.703Z,19.48
2022-09-14T05:18:43.945Z,19.27
2022-09-14T05:21:14.422Z,18.30
2022-09-14T05:23:41.674Z,18.35
2022-09-14T05:26:08.902Z,18.38
2022-09-14T05:28:36.186Z,19.15
2022-09-14T05:31:07.395Z,19.38
2022-09-14T05:33:35.172Z,18.60
2022-09-14T05:36:03.800Z,18.92
2022-09-14T05:38:31.646Z,19.23
2022-09-14T05:40:58.779Z,20.08
2022-09-14T05:43:25.984Z,19.60
2022-09-14T05:45:52.724Z,19.42
2022-09-14T05:48:19.422Z,19.90
2022-09-14T05:50:46.261Z,19.30
2022-09-14T05:53:13.060Z,20.42
2022-09-14T05:55:39.677Z,18.50
2022-09-14T05:58:06.269Z,17.85
2022-09-14T06:00:33.107Z,19.05
2022-09-14T06:02:59.743Z,19.00
2022-09-14T06:05:26.417Z,17.85
2022-09-14T06:07:54.089Z,18.58
2022-09-14T06:10:21.770Z,18.50
2022-09-14T06:12:53.479Z,18.33
2022-09-14T06:15:24.495Z,19.05
2022-09-14T06:17:51.203Z,19.10
2022-09-14T06:20:18.760Z,17.33
2022-09-14T06:22:45.383Z,17.08
2022-09-14T06:25:12.307Z,17.83
2022-09-14T06:27:38.974Z,17.63
2022-09-14T06:30:06.408Z,18.23
2022-09-14T06:32:33.153Z,16.77
2022-09-14T06:34:59.873Z,16.95
2022-09-14T06:37:26.475Z,18.15
2022-09-14T06:39:53.215Z,18.30
2022-09-14T06:42:19.877Z,18.65
2022-09-14T06:44:51.605Z,17.38
2022-09-14T06:47:18.319Z,16.33
2022-09-14T06:49:44.905Z,16.48
2022-09-14T06:52:11.572Z,16.48
2022-09-14T06:54:38.220Z,16.17
2022-09-14T06:57:06.426Z,16.95
2022-09-14T06:59:33.082Z,16.23
2022-09-14T07:01:59.828Z,13.98
2022-09-14T07:04:26.494Z,16.90
2022-09-14T07:06:53.139Z,15.65
2022-09-14T07:09:20.352Z,14.63
2022-09-14T07:11:47.484Z,14.40
2022-09-14T07:14:14.414Z,17.50
2022-09-14T07:16:41.227Z,17.25
2022-09-14T07:19:11.534Z,14.40
2022-09-14T07:21:38.650Z,14.13
2022-09-14T07:24:05.715Z,14.73
2022-09-14T07:26:39.438Z,16.50
2022-09-14T07:29:08.200Z,14.73
2022-09-14T07:31:55.241Z,15.90
2022-09-14T07:34:22.609Z,17.33
2022-09-14T07:36:49.274Z,25.88
2022-09-14T07:39:17.642Z,15.43
2022-09-14T07:41:45.044Z,14.52
2022-09-14T07:44:15.257Z,14.38
2022-09-14T07:46:44.140Z,14.68
2022-09-14T07:49:12.159Z,15.68
2022-09-14T07:51:39.879Z,14.43
2022-09-14T07:54:08.012Z,16.90
2022-09-14T07:56:35.202Z,15.73
2022-09-14T07:59:30.956Z,19.33
2022-09-14T08:01:50.549Z,15.07
2022-09-14T08:04:17.511Z,16.63
2022-09-14T08:06:44.146Z,18.83
2022-09-14T08:09:10.828Z,15.90
2022-09-14T08:11:38.295Z,18.88
2022-09-14T08:14:11.282Z,15.25
2022-09-14T08:16:38.924Z,15.30
2022-09-14T08:19:10.623Z,15.68
2022-09-14T08:21:37.642Z,17.33
2022-09-14T08:24:04.460Z,16.08
2022-09-14T08:26:31.758Z,15.88
2022-09-14T08:29:02.853Z,16.00
2022-09-14T08:31:29.615Z,17.88
2022-09-14T08:33:59.063Z,21.08
2022-09-14T08:36:29.060Z,17.40
2022-09-14T08:38:55.813Z,18.50
2022-09-14T08:41:50.895Z,17.88
2022-09-14T08:44:41.120Z,17.40
2022-09-14T08:47:25.824Z,22.25
2022-09-14T08:49:57.043Z,15.75
2022-09-14T08:52:47.126Z,16.10
2022-09-14T08:55:40.280Z,17.05
2022-09-14T08:58:10.169Z,17.85
2022-09-14T09:00:41.855Z,18.15
2022-09-14T09:03:30.930Z,17.98
2022-09-14T09:06:02.906Z,17.70
2022-09-14T09:08:38.886Z,18.48
2022-09-14T09:11:13.031Z,15.82
2022-09-14T09:13:40.036Z,18.33
2022-09-14T09:16:09.948Z,17.25
2022-09-14T09:18:42.731Z,16.42
2022-09-14T09:21:17.239Z,28.85
2022-09-14T09:23:44.673Z,17.37
2022-09-14T09:26:25.638Z,17.45
2022-09-14T09:28:54.246Z,19.10
2022-09-14T09:31:44.198Z,18.00
2022-09-14T09:34:30.063Z,16.20
2022-09-14T09:37:15.828Z,15.00
2022-09-14T09:39:43.766Z,15.45
2022-09-14T09:42:28.137Z,15.00
2022-09-14T09:45:01.800Z,14.48
2022-09-14T09:47:39.337Z,13.48
2022-09-14T09:50:18.528Z,15.57
2022-09-14T09:53:03.195Z,13.10
2022-09-14T09:55:38.225Z,14.50
2022-09-14T09:58:35.871Z,15.35
2022-09-14T10:01:17.536Z,14.68
2022-09-14T10:03:51.303Z,14.32
2022-09-14T10:06:18.090Z,14.00
2022-09-14T10:08:47.326Z,13.02
2022-09-14T10:11:30.900Z,12.43
2022-09-14T10:13:58.208Z,13.65
2022-09-14T10:16:29.846Z,12.98
2022-09-14T10:18:59.383Z,14.98
2022-09-14T10:21:26.227Z,14.50
2022-09-14T10:24:05.675Z,12.20
2022-09-14T10:26:35.359Z,12.25
2022-09-14T10:29:36.212Z,18.40
2022-09-14T10:32:26.052Z,13.18
2022-09-14T10:34:53.081Z,13.82
2022-09-14T10:37:57.975Z,20.48
2022-09-14T10:40:44.053Z,12.35
2022-09-14T10:43:51.227Z,14.60
2022-09-14T10:46:21.761Z,14.77
2022-09-14T10:48:48.415Z,11.57
2022-09-14T10:51:35.979Z,12.80
2022-09-14T10:54:16.824Z,13.30
2022-09-14T10:56:54.541Z,12.70
2022-09-14T10:59:27.647Z,13.93
2022-09-14T11:01:54.368Z,12.70
2022-09-14T11:04:49.150Z,13.23
2022-09-14T11:07:29.456Z,12.13
2022-09-14T11:10:24.597Z,13.90
2022-09-14T11:13:19.848Z,13.65
2022-09-14T11:15:54.110Z,11.02
2022-09-14T11:18:39.520Z,12.77
2022-09-14T11:21:30.841Z,10.93
2022-09-14T11:24:03.570Z,12.38
2022-09-14T11:26:47.783Z,14.65
2022-09-14T11:29:29.234Z,15.82
2022-09-14T11:32:21.331Z,16.35
2022-09-14T11:34:57.722Z,18.80
2022-09-14T11:37:41.460Z,21.83
2022-09-14T11:40:24.086Z,18.35
2022-09-14T11:42:58.205Z,13.80
2022-09-14T11:45:30.449Z,13.95
2022-09-14T11:48:41.777Z,16.88
2022-09-14T11:51:13.345Z,13.80
2022-09-14T11:53:42.266Z,14.73
2022-09-14T11:56:26.805Z,17.40
2022-09-14T11:59:04.004Z,12.23
2022-09-14T12:01:36.382Z,13.32
2022-09-14T12:04:12.764Z,13.63
2022-09-14T12:06:39.460Z,12.27
2022-09-14T12:09:20.871Z,14.15
2022-09-14T12:11:56.610Z,15.98
2022-09-14T12:14:30.101Z,13.65
2022-09-14T12:17:38.780Z,17.13
2022-09-14T12:20:29.374Z,10.18
2022-09-14T12:23:21.249Z,9.00
2022-09-14T12:25:53.996Z,9.27
2022-09-14T12:28:37.143Z,11.48
2022-09-14T12:31:03.993Z,8.18
2022-09-14T12:33:33.736Z,8.60
2022-09-14T12:36:07.125Z,6.97
2022-09-14T12:38:36.850Z,8.50
2022-09-14T12:41:24.022Z,7.13
2022-09-14T12:43:50.969Z,7.72
2022-09-14T12:46:20.751Z,8.85
2022-09-14T12:48:51.710Z,11.13
2022-09-14T12:51:44.431Z,9.63
2022-09-14T12:54:25.990Z,11.25
2022-09-14T12:57:03.186Z,10.55
2022-09-14T13:00:04.669Z,10.48
2022-09-14T13:03:13.797Z,15.63
2022-09-14T13:05:43.593Z,11.35
2022-09-14T13:08:12.440Z,8.98
2022-09-14T13:10:50.948Z,9.88
2022-09-14T13:13:31.411Z,10.93
2022-09-14T13:16:00.797Z,11.88
2022-09-14T13:18:30.610Z,11.75
2022-09-14T13:20:59.774Z,10.45
2022-09-14T13:23:38.800Z,14.77
2022-09-14T13:26:11.801Z,12.23
2022-09-14T13:28:41.921Z,16.17
2022-09-14T13:31:14.052Z,15.02
2022-09-14T13:33:51.265Z,9.30
2022-09-14T13:36:21.632Z,15.10
2022-09-14T13:38:48.855Z,9.50
2022-09-14T13:41:18.505Z,7.85
2022-09-14T13:43:47.304Z,11.45
2022-09-14T13:46:18.342Z,8.07
2022-09-14T13:48:47.391Z,9.30
2022-09-14T13:51:14.770Z,8.35
2022-09-14T13:53:49.889Z,11.20
2022-09-14T13:58:48.507Z,8.68
2022-09-14T14:01:25.932Z,8.93
2022-09-14T14:03:52.657Z,7.70
2022-09-14T14:06:28.289Z,9.05
2022-09-14T14:09:00.376Z,8.05
2022-09-14T14:11:31.684Z,11.05
2022-09-14T14:14:10.527Z,7.93
2022-09-14T14:16:37.371Z,8.45
2022-09-14T14:19:04.350Z,10.77
2022-09-14T14:21:33.062Z,8.35
2022-09-14T14:24:26.546Z,13.70
2022-09-14T14:26:57.528Z,9.05
2022-09-14T14:29:26.050Z,8.85
2022-09-14T14:31:55.268Z,8.05
2022-09-14T14:34:29.415Z,11.77
2022-09-14T14:36:56.425Z,10.00
2022-09-14T14:39:24.859Z,9.18
2022-09-14T14:41:54.409Z,12.50
2022-09-14T14:44:28.082Z,11.63
2022-09-14T14:46:55.515Z,12.25
2022-09-14T14:49:23.527Z,11.52
2022-09-14T14:51:50.492Z,11.20
2022-09-14T14:54:17.924Z,12.73
2022-09-14T14:56:46.445Z,11.38
2022-09-14T14:59:19.382Z,14.02
2022-09-14T15:01:46.974Z,11.70
2022-09-14T15:04:14.210Z,11.70
2022-09-14T15:06:41.059Z,12.40
2022-09-14T15:09:15.152Z,12.05
2022-09-14T15:11:41.861Z,10.98
2022-09-14T15:14:13.961Z,13.13
2022-09-14T15:16:40.824Z,12.77
2022-09-14T15:19:07.558Z,12.63
2022-09-14T15:21:34.287Z,11.25
2022-09-14T15:24:01.263Z,11.55
2022-09-14T15:26:28.091Z,11.20
2022-09-14T15:28:54.756Z,10.38
2022-09-14T15:31:21.709Z,12.15
2022-09-14T15:33:48.347Z,11.57
2022-09-14T15:36:35.714Z,13.20
2022-09-14T15:39:02.848Z,11.35
2022-09-14T15:41:29.494Z,13.50
2022-09-14T15:43:56.102Z,12.05
2022-09-14T15:46:22.762Z,12.68
2022-09-14T15:48:49.347Z,10.30
2022-09-14T15:51:17.129Z,10.93
2022-09-14T15:53:45.535Z,12.25
2022-09-14T15:56:14.571Z,12.98
2022-09-14T15:58:45.912Z,15.95
2022-09-14T16:01:16.406Z,13.57
2022-09-14T16:03:43.525Z,19.80
2022-09-14T16:06:12.132Z,15.20
2022-09-14T16:08:40.037Z,13.30
2022-09-14T16:11:07.973Z,9.88
2022-09-14T16:13:35.597Z,11.55
2022-09-14T16:16:04.507Z,12.27
2022-09-14T16:18:31.640Z,11.73
2022-09-14T16:21:14.704Z,12.85
2022-09-14T16:23:44.071Z,12.27
2022-09-14T16:26:15.387Z,10.63
2022-09-14T16:28:43.401Z,14.60
2022-09-14T16:31:16.451Z,14.85
2022-09-14T16:33:45.900Z,14.88
2022-09-14T16:36:15.436Z,10.70
2022-09-14T16:38:42.644Z,11.52
2022-09-14T16:41:11.367Z,11.48
2022-09-14T16:43:38.391Z,13.95
2022-09-14T16:46:09.349Z,13.60
2022-09-14T16:48:39.264Z,10.82
2022-09-14T16:51:06.749Z,16.17
2022-09-14T16:53:35.602Z,15.93
2022-09-14T16:56:02.218Z,12.38
2022-09-14T16:58:29.510Z,12.45
2022-09-14T17:00:56.457Z,14.25
2022-09-14T17:03:23.507Z,13.18
2022-09-14T17:05:50.263Z,20.33
2022-09-14T17:08:16.852Z,12.07
2022-09-14T17:10:46.939Z,15.05
2022-09-14T17:13:13.720Z,20.02
2022-09-14T17:15:40.402Z,11.95
2022-09-14T17:18:07.032Z,13.77
2022-09-14T17:20:33.637Z,18.17
2022-09-14T17:23:00.356Z,15.82
2022-09-14T17:25:28.655Z,13.50
2022-09-14T17:27:55.318Z,14.35
2022-09-14T17:30:21.941Z,18.65
2022-09-14T17:32:48.568Z,14.90
2022-09-14T17:35:15.719Z,14.32
2022-09-14T17:37:42.296Z,19.65
2022-09-14T17:40:10.732Z,15.82
2022-09-14T17:42:37.360Z,15.40
2022-09-14T17:45:06.348Z,17.60
2022-09-14T17:47:35.642Z,17.23
2022-09-14T17:50:03.395Z,21.13
2022-09-14T17:52:30.922Z,19.65
2022-09-14T17:54:57.553Z,23.27
2022-09-14T17:57:24.174Z,18.05
2022-09-14T17:59:50.942Z,22.33
2022-09-14T18:02:17.779Z,17.70
2022-09-14T18:04:48.518Z,19.15
2022-09-14T18:07:16.558Z,18.08
2022-09-14T18:09:43.334Z,16.50
2022-09-14T18:12:10.257Z,18.95
2022-09-14T18:14:37.040Z,17.60
2022-09-14T18:17:03.813Z,23.13
2022-09-14T18:19:30.425Z,19.30
2022-09-14T18:21:57.028Z,19.95
2022-09-14T18:24:23.930Z,19.15
2022-09-14T18:26:50.597Z,21.55
2022-09-14T18:29:20.854Z,16.88
2022-09-14T18:31:47.545Z,22.83
2022-09-14T18:34:14.194Z,25.85
2022-09-14T18:36:40.773Z,26.75
2022-09-14T18:39:07.417Z,19.20
2022-09-14T18:41:34.110Z,19.88
2022-09-14T18:44:01.649Z,24.27
2022-09-14T18:46:28.927Z,25.42
2022-09-14T18:48:57.758Z,23.40
2022-09-14T18:51:24.807Z,24.70
2022-09-14T18:54:03.976Z,30.13
2022-09-14T18:56:33.094Z,25.75
2022-09-14T18:59:01.295Z,28.55
2022-09-14T19:01:28.501Z,30.08
2022-09-14T19:03:58.824Z,27.67
2022-09-14T19:06:25.783Z,31.05
2022-09-14T19:08:52.743Z,38.05
2022-09-14T19:11:24.619Z,38.00
2022-09-14T19:14:10.169Z,37.70
2022-09-14T19:16:39.067Z,43.15
2022-09-14T19:19:07.326Z,46.92
2022-09-14T19:21:34.213Z,44.85
2022-09-14T19:24:03.866Z,49.83
2022-09-14T19:26:45.295Z,46.00
2022-09-14T19:29:14.719Z,50.42
2022-09-14T19:31:41.448Z,49.97
2022-09-14T19:34:08.159Z,55.47
2022-09-14T19:36:34.994Z,56.00
2022-09-14T19:39:03.542Z,52.03
2022-09-14T19:41:32.767Z,50.70
2022-09-14T19:44:00.319Z,56.67
2022-09-14T19:46:27.330Z,54.90
2022-09-14T19:48:54.666Z,52.78
2022-09-14T19:51:27.573Z,60.33
2022-09-14T19:53:59.375Z,55.35
2022-09-14T19:56:30.312Z,51.35
2022-09-14T19:58:59.886Z,52.10
2022-09-14T20:01:28.417Z,55.17
2022-09-14T20:03:55.214Z,53.13
2022-09-14T20:06:33.858Z,46.22
2022-09-14T20:09:12.281Z,51.78
2022-09-14T20:11:40.552Z,41.78
2022-09-14T20:14:10.020Z,40.08
2022-09-14T20:16:39.734Z,41.13
2022-09-14T20:19:12.446Z,45.90
2022-09-14T20:21:41.203Z,42.33
2022-09-14T20:24:16.284Z,37.17
2022-09-14T20:26:48.721Z,39.28
2022-09-14T20:29:16.880Z,35.05
2022-09-14T20:31:44.480Z,38.05
2022-09-14T20:34:12.036Z,43.72
2022-09-14T20:36:38.738Z,40.20
2022-09-14T20:39:06.005Z,42.75
2022-09-14T20:41:34.706Z,39.72
2022-09-14T20:44:01.950Z,41.95
2022-09-14T20:46:31.753Z,43.05
2022-09-14T20:48:58.625Z,47.53
2022-09-14T20:51:25.681Z,52.47
2022-09-14T20:53:52.592Z,43.63
2022-09-14T20:56:22.354Z,44.20
2022-09-14T20:58:52.478Z,51.38
2022-09-14T21:01:21.245Z,44.75
2022-09-14T21:03:49.232Z,60.05
2022-09-14T21:06:19.578Z,54.10
2022-09-14T21:08:47.119Z,53.95
2022-09-14T21:11:19.820Z,54.88
2022-09-14T21:13:47.339Z,60.60
2022-09-14T21:16:22.182Z,58.13
2022-09-14T21:18:56.190Z,57.47
2022-09-14T21:21:23.543Z,59.65
2022-09-14T21:23:50.857Z,60.88
2022-09-14T21:26:19.733Z,62.13
2022-09-14T21:28:47.010Z,63.22
2022-09-14T21:31:21.241Z,55.85
2022-09-14T21:33:51.105Z,61.17
2022-09-14T21:36:21.350Z,66.90
2022-09-14T21:38:54.404Z,70.15
2022-09-14T21:41:23.195Z,74.35
2022-09-14T21:43:50.338Z,68.15
2022-09-14T21:46:18.353Z,71.13
2022-09-14T21:48:45.249Z,64.80
2022-09-14T21:51:18.132Z,70.63
2022-09-14T21:53:46.923Z,86.50
2022-09-14T21:56:14.271Z,76.35
2022-09-14T21:58:41.281Z,96.95
2022-09-14T22:01:08.660Z,88.57
2022-09-14T22:03:36.588Z,82.85
2022-09-14T22:06:06.388Z,88.13
2022-09-14T22:08:35.132Z,86.47
2022-09-14T22:11:10.617Z,91.72
2022-09-14T22:13:38.356Z,100.00
2022-09-14T22:16:10.288Z,177.70
2022-09-14T22:18:39.591Z,186.43
2022-09-14T22:21:07.493Z,231.30
2022-09-14T22:23:35.397Z,254.20
2022-09-14T22:26:10.655Z,186.40
2022-09-14T22:28:41.774Z,200.25
2022-09-14T22:31:09.225Z,379.33
2022-09-14T22:33:36.288Z,245.27
2022-09-14T22:36:04.466Z,235.27
2022-09-14T22:38:34.103Z,456.30
2022-09-14T22:41:04.250Z,190.23
2022-09-14T22:43:33.672Z,374.60
2022-09-14T22:46:01.619Z,332.80
2022-09-14T22:48:28.534Z,329.58
2022-09-14T22:50:57.132Z,348.85
2022-09-14T22:53:25.223Z,277.02
2022-09-14T22:55:52.529Z,234.15
2022-09-14T22:58:22.504Z,204.45
2022-09-14T23:00:49.622Z,147.00
2022-09-14T23:03:18.117Z,162.90
2022-09-14T23:05:53.215Z,171.98
2022-09-14T23:10:48.604Z,154.23
2022-09-14T23:13:16.176Z,182.50
2022-09-14T23:15:42.964Z,164.13
2022-09-14T23:18:10.518Z,154.70
2022-09-14T23:20:38.667Z,151.07
2022-09-14T23:23:05.751Z,171.73
2022-09-14T23:25:35.414Z,175.27
2022-09-14T23:28:03.376Z,175.07
2022-09-14T23:30:31.033Z,153.73
2022-09-14T23:32:58.579Z,159.23
2022-09-14T23:35:26.919Z,122.35
2022-09-14T23:37:54.289Z,151.25
2022-09-14T23:40:21.376Z,147.10
2022-09-14T23:42:48.115Z,165.07
2022-09-14T23:45:15.002Z,179.48
2022-09-14T23:47:41.916Z,193.15
2022-09-14T23:50:09.226Z,180.77
2022-09-14T23:52:36.771Z,192.02
2022-09-14T23:55:04.109Z,174.27
2022-09-14T23:57:30.794Z,200.32
2022-09-14T23:59:58.538Z,184.00
